Rosiori de Vede, Romania
Current Conditions -  °F | °C
As of 3:00 AM on Tuesday 25 Nov 2014 (Local Time) from LRCV Reporting Station
Broken Clouds Broken Clouds  
Wind Chill: 34°   Ceiling: 5000
Heat Index: 34°   Visibility: 6mi
Dew Point: 30°   Wind: 2mph
Humidity: 87%   Direction: 140°SE
Pressure: 30.45"   Gusts: NA
Location:  44.12°N, 25°E
Report Text: LRCV 250000Z 14002KT 9999 BKN050 01/M01 Q1031
Loading
Personal Weather Stations






























Interactive Weather Map New forecast layout! Learn more

10-Day Weather Forecast

Advertisements
Track Severe Weather on mobile